Latest Weather Observations for Bankstown

IDN60901

Issued at 6:02 pm EST Saturday 5 September 2026 (issued every 10 minutes, with the page automatically refreshed every 10 minutes)

About weather observations | Map of Sydney area stations | Latest observations for Sydney area | Other Formats
Station Details ID: 066137 Name: BANKSTOWN AIRPORT AWS Lat: -33.92 Lon: 150.98 Height: 7.2 m
Data from the previous 72 hours. | See also: Recent months at Bankstown
Date/Time
EST
Temp
°C
App
Temp
°C
Dew
Point
°C
Rel
Hum
%
Delta-T
°C
Wind Press
QNH
hPa
Press
MSL
hPa
Rain since
9am
mm
Dir  Spd
km/h
Gust
km/h
Spd
kts
Gust
kts
05/06:00pm 22.8 19.0 11.2 48 6.5 NNW 22 39 12 21 1008.3 1008.3 0.4
05/05:30pm 20.1 19.0 14.2 69 3.4 N 13 19 7 10 1009.0 1009.0 0.4
05/05:00pm 20.2 18.3 14.3 69 3.4 WNW 17 28 9 15 1010.1 1010.1 0.4
05/04:31pm 19.7 16.5 14.3 71 3.1 W 24 35 13 19 1009.7 1009.7 0.4
05/04:30pm 19.7 16.7 14.7 73 2.9 W 24 37 13 20 1009.9 1009.9 0.4
05/04:12pm 23.6 15.3 11.3 46 6.9 WSW 46 82 25 44 1009.2 1009.2 0.0
05/04:11pm 24.1 15.2 10.7 43 7.4 WSW 48 82 26 44 1009.0 1009.0 0.0
05/04:07pm 25.5 17.7 9.7 37 8.7 W 41 82 22 44 1008.7 1008.7 0.0
05/04:02pm 27.9 21.5 9.2 31 10.3 W 33 82 18 44 1008.3 1008.3 0.0
05/04:00pm 28.9 22.5 8.6 28 11.2 W 32 54 17 29 1007.8 1007.8 0.0
05/03:30pm 29.5 20.9 8.0 26 11.7 W 43 65 23 35 1006.4 1006.4 0.0
05/03:00pm 30.1 22.4 7.3 24 12.4 W 37 57 20 31 1005.8 1005.8 0.0
05/02:35pm 31.3 25.0 5.7 20 13.6 WNW 28 61 15 33 1005.6 1005.6 0.0
05/02:30pm 31.5 26.1 6.5 21 13.4 NW 24 46 13 25 1005.3 1005.3 0.0
05/02:00pm 31.9 26.9 8.2 23 13.2 NNW 24 41 13 22 1005.4 1005.4 0.0
05/01:54pm 31.7 27.2 8.7 24 12.8 NNW 22 37 12 20 1005.5 1005.5 0.0
05/01:36pm 31.0 25.2 8.1 24 12.6 NNW 28 48 15 26 1005.9 1005.9 0.0
05/01:30pm 31.2 26.7 10.0 27 12.1 NNW 24 44 13 24 1005.9 1005.9 0.0
05/01:00pm 29.3 24.4 8.4 27 11.5 N 24 44 13 24 1007.0 1007.0 0.0
05/12:48pm 29.6 25.8 9.7 29 11.2 N 20 43 11 23 1007.5 1007.5 0.0
05/12:30pm 28.2 22.5 8.5 29 10.8 N 28 46 15 25 1008.2 1008.2 0.0
05/12:29pm 28.1 22.3 7.9 28 10.9 N 28 46 15 25 1008.2 1008.2 0.0
05/12:00pm 28.0 23.8 8.3 29 10.7 N 20 37 11 20 1009.4 1009.4 0.0
05/11:30am 27.7 23.3 7.5 28 10.8 N 20 41 11 22 1010.3 1010.3 0.0
05/11:00am 27.5 24.7 8.4 30 10.4 N 13 26 7 14 1011.3 1011.3 0.0
05/10:30am 24.9 22.4 8.4 35 8.8 N 11 19 6 10 1012.3 1012.3 0.0
05/10:00am 23.7 20.8 8.2 37 8.2 NNW 13 20 7 11 1013.4 1013.4 0.0
05/09:30am 22.3 19.4 8.1 40 7.5 NNW 13 22 7 12 1014.1 1014.1 0.0
05/09:00am 21.4 19.0 8.7 44 6.7 NNW 11 17 6 9 1014.8 1014.8 0.0
05/08:30am 18.9 17.8 9.9 56 4.8 WSW 6 9 3 5 1015.4 1015.4 0.0
05/08:00am 15.5 13.9 10.3 71 2.7 NNW 9 13 5 7 1015.5 1015.5 0.0
05/07:30am 12.5 12.5 9.9 84 1.3 CALM 0 0 0 0 1016.0 1016.0 0.0
05/07:00am 11.2 11.1 9.6 90 0.8 CALM 0 0 0 0 1015.8 1015.8 0.0
05/06:30am 9.7 9.4 8.5 92 0.6 CALM 0 0 0 0 1016.2 1016.2 0.0
05/06:00am 9.4 9.0 8.3 93 0.5 CALM 0 0 0 0 1016.3 1016.3 0.0
05/05:30am 9.6 9.0 8.8 95 0.4 SW 2 9 1 5 1016.0 1016.0 0.0
05/05:00am 9.7 9.4 8.8 94 0.4 CALM 0 0 0 0 1015.8 1015.8 0.0
05/04:30am 9.9 9.1 8.3 90 0.8 N 2 7 1 4 1016.4 1016.4 0.0
05/04:00am 10.1 9.9 9.0 93 0.5 CALM 0 0 0 0 1016.4 1016.4 0.0
05/03:30am 10.0 9.8 8.9 93 0.5 CALM 0 0 0 0 1016.1 1016.1 0.0
05/03:00am 10.7 10.6 9.6 93 0.6 CALM 0 0 0 0 1016.3 1016.3 0.0
05/02:30am 10.7 10.7 9.8 94 0.5 CALM 0 0 0 0 1016.7 1016.7 0.0
05/02:00am 10.8 10.7 9.6 92 0.6 CALM 0 0 0 0 1017.4 1017.4 0.0
05/01:30am 11.2 11.3 10.0 92 0.6 CALM 0 0 0 0 1017.6 1017.6 0.0
05/01:00am 11.7 11.7 9.9 89 0.9 CALM 0 0 0 0 1018.1 1018.1 0.0
05/12:30am 11.8 11.9 10.0 89 0.9 CALM 0 0 0 0 1018.4 1018.4 0.0
05/12:00am 12.9 13.0 10.1 83 1.4 CALM 0 0 0 0 1018.3 1018.3 0.0
 
Date/Time
EST
Temp
°C
App
Temp
°C
Dew
Point
°C
Rel
Hum
%
Delta-T
°C
Wind Press
QNH
hPa
Press
MSL
hPa
Rain since
9am
mm
Dir  Spd
km/h
Gust
km/h
Spd
kts
Gust
kts
04/11:30pm 12.8 12.9 10.0 83 1.4 CALM 0 0 0 0 1018.4 1018.4 0.0
04/11:00pm 13.8 13.4 11.0 83 1.5 NW 4 7 2 4 1018.5 1018.5 0.0
04/10:30pm 13.9 14.1 10.7 81 1.7 CALM 0 0 0 0 1019.0 1019.0 0.0
04/10:00pm 14.5 14.1 9.9 74 2.4 ESE 2 7 1 4 1019.4 1019.4 0.0
04/09:30pm 15.7 14.5 10.2 70 2.9 ESE 7 9 4 5 1019.5 1019.5 0.0
04/09:00pm 17.0 15.5 10.4 65 3.5 E 9 9 5 5 1019.4 1019.4 0.0
04/08:30pm 16.8 14.9 10.4 66 3.4 SE 11 13 6 7 1019.0 1019.0 0.0
04/08:00pm 16.3 14.9 10.8 70 2.9 S 9 13 5 7 1018.9 1018.9 0.0
04/07:30pm 16.5 16.5 9.7 64 3.6 CALM 0 0 0 0 1018.1 1018.1 0.0
04/07:00pm 18.2 16.8 9.5 57 4.6 ESE 7 9 4 5 1017.8 1017.8 0.0
04/06:30pm 18.9 17.0 9.1 53 5.1 ENE 9 15 5 8 1017.5 1017.5 0.0
04/06:00pm 20.0 17.7 9.0 49 5.8 NE 11 17 6 9 1017.1 1017.1 0.0
04/05:30pm 20.7 19.3 8.7 46 6.3 WSW 6 17 3 9 1016.7 1016.7 0.0
04/05:00pm 23.4 21.5 6.7 34 8.6 NW 6 9 3 5 1016.4 1016.4 0.0
04/04:30pm 23.6 21.6 6.4 33 8.8 WNW 6 13 3 7 1016.3 1016.3 0.0
04/04:00pm 23.6 21.0 6.0 32 8.9 NNW 9 15 5 8 1016.3 1016.3 0.0
04/03:30pm 23.9 22.0 6.7 33 8.9 WNW 6 9 3 5 1016.6 1016.6 0.0
04/03:00pm 23.4 21.3 6.7 34 8.6 N 7 13 4 7 1016.7 1016.7 0.0
04/02:30pm 23.0 20.4 5.9 33 8.7 NNW 9 19 5 10 1017.2 1017.2 0.0
04/02:00pm 23.3 20.1 7.0 35 8.4 W 13 20 7 11 1017.6 1017.6 0.0
04/01:30pm 22.8 19.4 5.7 33 8.6 W 13 19 7 10 1018.1 1018.1 0.0
04/01:00pm 22.2 18.3 5.2 33 8.4 NW 15 19 8 10 1018.5 1018.5 0.0
04/12:30pm 22.0 18.4 5.0 33 8.4 W 13 22 7 12 1018.9 1018.9 0.0
04/12:00pm 21.4 17.4 3.1 30 8.7 NNW 13 19 7 10 1019.6 1019.6 0.0
04/11:30am 20.7 18.2 6.6 40 7.1 NW 9 15 5 8 1020.4 1020.4 0.0
04/11:00am 20.7 17.2 7.0 41 7.0 W 15 26 8 14 1021.0 1021.0 0.0
04/10:30am 20.0 16.9 7.4 44 6.4 WSW 13 19 7 10 1021.1 1021.1 0.0
04/10:00am 19.1 15.8 6.6 44 6.2 WSW 13 19 7 10 1021.5 1021.5 0.0
04/09:30am 18.4 15.1 8.1 51 5.3 W 15 19 8 10 1021.8 1021.8 0.0
04/09:00am 17.3 14.7 7.6 53 4.9 WSW 11 20 6 11 1022.3 1022.3 0.0
04/08:30am 15.9 13.1 6.9 55 4.4 WNW 11 15 6 8 1022.3 1022.3 0.0
04/08:00am 14.6 12.5 6.7 59 3.8 WNW 7 11 4 6 1022.4 1022.4 0.0
04/07:30am 13.2 11.4 7.2 67 2.9 WNW 6 9 3 5 1022.1 1022.1 0.0
04/07:00am 11.1 10.6 8.0 81 1.5 CALM 0 0 0 0 1021.8 1021.8 0.0
04/06:30am 10.2 8.1 6.7 79 1.6 WNW 7 9 4 5 1021.5 1021.5 0.0
04/06:00am 9.6 7.2 6.9 83 1.3 NW 9 11 5 6 1021.2 1021.2 0.0
04/05:30am 9.5 8.4 6.8 83 1.3 WNW 2 9 1 5 1020.7 1020.7 0.0
04/05:00am 9.7 8.5 6.4 80 1.5 WNW 2 7 1 4 1020.6 1020.6 0.0
04/04:30am 10.0 9.0 5.8 75 1.9 CALM 0 0 0 0 1020.5 1020.5 0.0
04/04:00am 11.3 10.5 6.6 73 2.2 CALM 0 7 0 4 1019.8 1019.8 0.0
04/03:30am 12.6 10.1 6.4 66 2.9 WNW 9 11 5 6 1019.8 1019.8 0.0
04/03:00am 12.3 10.6 5.7 64 3.1 NE 4 11 2 6 1019.9 1019.9 0.0
04/02:30am 13.4 10.5 6.5 63 3.3 NNW 11 15 6 8 1019.9 1019.9 0.0
04/02:00am 12.0 9.4 6.1 67 2.8 WNW 9 15 5 8 1020.1 1020.1 0.0
04/01:30am 13.4 11.3 6.0 61 3.5 NW 6 9 3 5 1020.6 1020.6 0.0
04/01:00am 14.1 12.0 6.5 60 3.6 NW 7 11 4 6 1020.5 1020.5 0.0
04/12:30am 14.7 11.8 6.3 57 4.0 WNW 11 13 6 7 1020.4 1020.4 0.0
04/12:00am 15.4 11.2 5.9 53 4.5 W 17 26 9 14 1020.5 1020.5 0.0
 
Date/Time
EST
Temp
°C
App
Temp
°C
Dew
Point
°C
Rel
Hum
%
Delta-T
°C
Wind Press
QNH
hPa
Press
MSL
hPa
Rain since
9am
mm
Dir  Spd
km/h
Gust
km/h
Spd
kts
Gust
kts
03/11:30pm 15.5 11.8 6.2 54 4.5 W 15 26 8 14 1020.4 1020.4 0.0
03/11:00pm 16.0 12.7 6.2 52 4.7 WSW 13 28 7 15 1020.1 1020.1 0.0
03/10:30pm 16.2 12.5 6.3 52 4.8 WSW 15 20 8 11 1019.7 1019.7 0.0
03/10:00pm 16.7 13.4 6.5 51 5.0 WSW 13 26 7 14 1019.2 1019.2 0.0
03/09:30pm 17.0 13.3 6.5 50 5.2 SW 15 24 8 13 1018.6 1018.6 0.0
03/09:00pm 17.0 14.0 6.2 49 5.3 WSW 11 19 6 10 1018.4 1018.4 0.0
03/08:30pm 18.0 15.7 5.6 44 6.0 SW 7 11 4 6 1017.7 1017.7 0.0
03/08:00pm 18.7 16.3 5.2 41 6.5 SW 7 11 4 6 1016.9 1016.9 0.0
03/07:30pm 19.0 16.1 4.4 38 7.0 W 9 15 5 8 1016.1 1016.1 0.0
03/07:00pm 20.4 16.2 4.0 34 7.9 W 15 22 8 12 1015.2 1015.2 0.0
03/06:30pm 20.9 16.7 3.6 32 8.3 W 15 22 8 12 1014.7 1014.7 0.0
03/06:00pm 21.6 18.2 3.8 31 8.6 WSW 11 15 6 8 1014.1 1014.1 0.0
03/05:30pm 22.9 18.6 3.4 28 9.4 WSW 15 26 8 14 1013.4 1013.4 0.0
03/05:00pm 24.0 19.5 2.2 24 10.4 WSW 15 26 8 14 1012.8 1012.8 0.0
03/04:30pm 24.8 20.1 2.9 24 10.6 W 17 26 9 14 1012.2 1012.2 0.0
03/04:00pm 25.3 20.2 3.3 24 10.8 WSW 19 28 10 15 1011.8 1011.8 0.0
03/03:30pm 25.8 20.5 3.1 23 11.1 W 20 30 11 16 1011.5 1011.5 0.0
03/03:00pm 25.9 20.0 3.8 24 11.0 W 24 37 13 20 1011.4 1011.4 0.0
03/02:30pm 26.1 20.8 5.1 26 10.7 W 22 33 12 18 1010.9 1010.9 0.0
03/02:00pm 25.7 19.2 4.8 26 10.6 WSW 28 37 15 20 1010.8 1010.8 0.0
03/01:30pm 25.9 20.6 4.9 26 10.6 W 22 37 12 20 1010.8 1010.8 0.0
03/01:00pm 25.9 19.9 5.5 27 10.5 W 26 44 14 24 1010.7 1010.7 0.0
03/12:31pm 25.7 21.2 8.7 34 9.2 WSW 22 37 12 20 1010.6 1010.6 0.0
03/12:30pm 25.9 21.0 8.4 33 9.4 WSW 24 46 13 25 1010.6 1010.6 0.0
03/12:21pm 25.8 20.3 9.2 35 9.1 WSW 28 46 15 25 1010.5 1010.5 0.0
03/12:00pm 25.5 20.2 8.5 34 9.2 SW 26 37 14 20 1010.5 1010.5 0.0
03/11:30am 25.5 20.4 7.6 32 9.5 SW 24 39 13 21 1010.8 1010.8 0.0
03/11:00am 26.0 21.2 8.9 34 9.3 WSW 24 39 13 21 1010.3 1010.3 0.0
03/10:30am 26.3 22.4 10.9 38 8.7 W 22 35 12 19 1010.2 1010.2 0.0
03/10:00am 25.3 21.6 9.6 37 8.6 WNW 19 32 10 17 1010.1 1010.1 0.0
03/09:30am 25.1 21.9 9.8 38 8.4 NW 17 28 9 15 1009.9 1009.9 0.0
03/09:00am 24.2 21.0 9.8 40 7.9 NW 17 30 9 16 1009.7 1009.7 0.0
03/08:30am 22.4 19.9 9.6 44 6.9 NNW 13 24 7 13 1009.5 1009.5 0.0
03/08:00am 20.9 19.6 10.1 50 5.8 NNW 7 15 4 8 1009.5 1009.5 0.0
03/07:30am 17.4 18.0 11.9 70 3.0 CALM 0 0 0 0 1009.6 1009.6 0.0
03/07:00am 15.2 15.5 11.0 76 2.2 CALM 0 0 0 0 1009.6 1009.6 0.0
03/06:30am 15.4 14.5 10.6 73 2.5 W 6 7 3 4 1009.3 1009.3 0.0
03/06:00am 19.1 17.0 9.6 54 5.0 N 11 17 6 9 1009.4 1009.4 0.0
03/05:30am 19.0 16.5 9.8 55 4.9 N 13 20 7 11 1009.2 1009.2 0.0
03/05:00am 15.5 14.8 11.5 77 2.2 WSW 6 7 3 4 1010.3 1010.3 0.0
03/04:30am 16.8 17.0 10.6 67 3.3 CALM 0 0 0 0 1010.7 1010.7 0.0
03/04:00am 16.2 15.0 11.6 74 2.5 W 9 13 5 7 1011.4 1011.4 0.0
03/03:30am 19.8 17.9 9.1 50 5.6 N 9 13 5 7 1010.3 1010.3 0.0
03/03:00am 19.8 18.0 9.4 51 5.5 N 9 13 5 7 1010.8 1010.8 0.0
03/02:30am 17.7 16.3 10.8 64 3.7 NNW 9 13 5 7 1011.3 1011.3 0.0
03/02:00am 14.1 14.5 11.1 82 1.6 CALM 0 7 0 4 1011.9 1011.9 0.0
03/01:30am 14.1 14.5 11.1 82 1.6 CALM 0 0 0 0 1012.2 1012.2 0.0
03/01:00am 14.1 14.5 11.1 82 1.6 CALM 0 0 0 0 1012.3 1012.3 0.0
03/12:30am 13.9 14.1 10.5 80 1.8 CALM 0 0 0 0 1012.7 1012.7 0.0
03/12:00am 13.5 12.4 10.1 80 1.8 WNW 6 7 3 4 1013.1 1013.1 0.0
 
Date/Time
EST
Temp
°C
App
Temp
°C
Dew
Point
°C
Rel
Hum
%
Delta-T
°C
Wind Press
QNH
hPa
Press
MSL
hPa
Rain since
9am
mm
Dir  Spd
km/h
Gust
km/h
Spd
kts
Gust
kts
02/11:30pm 13.6 13.2 9.8 78 2.0 NNW 2 7 1 4 1013.3 1013.3 0.0
02/11:00pm 14.2 14.0 9.2 72 2.5 CALM 0 0 0 0 1013.7 1013.7 0.0
02/10:30pm 14.9 14.8 9.3 69 2.9 CALM 0 0 0 0 1013.9 1013.9 0.0
02/10:00pm 15.4 15.2 9.1 66 3.2 CALM 0 0 0 0 1014.1 1014.1 0.0
02/09:30pm 16.1 15.8 8.6 61 3.8 CALM 0 0 0 0 1014.1 1014.1 0.0
02/09:00pm 16.9 16.7 9.1 60 4.0 CALM 0 0 0 0 1014.3 1014.3 0.0
02/08:30pm 18.5 18.1 8.2 51 5.3 CALM 0 0 0 0 1014.3 1014.3 0.0
02/08:00pm 20.2 18.5 7.6 44 6.5 NNW 6 7 3 4 1014.0 1014.0 0.0
02/07:30pm 21.3 19.5 7.9 42 7.0 NW 7 13 4 7 1014.0 1014.0 0.0
02/07:00pm 22.3 20.4 7.7 39 7.6 NW 7 11 4 6 1013.7 1013.7 0.0
02/06:30pm 22.7 20.5 7.7 38 7.8 WNW 9 13 5 7 1013.4 1013.4 0.0

Latest Capital City Observations: Canberra | Sydney | Melbourne | Brisbane | Adelaide | Perth | Hobart | Darwin

Other formats

Comma delimited format used in spreadsheet applications
http://www.bom.gov.au/fwo/IDN60901/IDN60901.94765.axf

JavaScript Object Notation format (JSON) in row-major order
http://www.bom.gov.au/fwo/IDN60901/IDN60901.94765.json

Data quality

Most of these data are generated automatically and are frequently updated. Quality checks on data are not normally performed. It is possible for incorrect values to appear. Refer to information at About Latest Weather Observations and please check the disclaimer before using these data.